sensor_id;sensor_type;location;lat;lon;timestamp;P1;P2;P0
84594;PMS5003;74832;51.656;5.298;2024-01-06T00:00:26;8.0;8.0;
84594;PMS5003;74832;51.656;5.298;2024-01-06T00:00:57;8.0;7.0;
84594;PMS5003;74832;51.656;5.298;2024-01-06T00:01:27;8.0;7.0;
84594;PMS5003;74832;51.656;5.298;2024-01-06T00:01:58;7.0;7.0;
84594;PMS5003;74832;51.656;5.298;2024-01-06T00:02:28;8.0;7.0;
84594;PMS5003;74832;51.656;5.298;2024-01-06T00:02:58;11.0;9.0;
84594;PMS5003;74832;51.656;5.298;2024-01-06T00:03:31;9.0;8.0;
84594;PMS5003;74832;51.656;5.298;2024-01-06T00:04:04;9.0;7.0;
84594;PMS5003;74832;51.656;5.298;2024-01-06T00:04:35;10.0;8.0;
84594;PMS5003;74832;51.656;5.298;2024-01-06T00:05:05;4.0;4.0;
84594;PMS5003;74832;51.656;5.298;2024-01-06T00:05:36;8.0;8.0;
84594;PMS5003;74832;51.656;5.298;2024-01-06T00:06:07;7.0;6.0;
84594;PMS5003;74832;51.656;5.298;2024-01-06T00:06:37;9.0;8.0;
84594;PMS5003;74832;51.656;5.298;2024-01-06T00:07:08;6.0;6.0;
84594;PMS5003;74832;51.656;5.298;2024-01-06T00:07:38;9.0;7.0;
84594;PMS5003;74832;51.656;5.298;2024-01-06T00:08:08;8.0;7.0;
84594;PMS5003;74832;51.656;5.298;2024-01-06T00:08:39;10.0;7.0;
84594;PMS5003;74832;51.656;5.298;2024-01-06T00:09:09;10.0;9.0;
84594;PMS5003;74832;51.656;5.298;2024-01-06T00:09:40;6.0;6.0;
84594;PMS5003;74832;51.656;5.298;2024-01-06T00:10:10;6.0;6.0;
84594;PMS5003;74832;51.656;5.298;2024-01-06T00:10:40;7.0;7.0;
84594;PMS5003;74832;51.656;5.298;2024-01-06T00:11:11;8.0;8.0;
84594;PMS5003;74832;51.656;5.298;2024-01-06T00:11:41;7.0;7.0;
84594;PMS5003;74832;51.656;5.298;2024-01-06T00:12:12;10.0;10.0;
84594;PMS5003;74832;51.656;5.298;2024-01-06T00:12:42;7.0;7.0;
84594;PMS5003;74832;51.656;5.298;2024-01-06T00:13:12;12.0;9.0;
84594;PMS5003;74832;51.656;5.298;2024-01-06T00:13:43;5.0;5.0;
84594;PMS5003;74832;51.656;5.298;2024-01-06T00:14:13;9.0;8.0;
84594;PMS5003;74832;51.656;5.298;2024-01-06T00:14:43;6.0;6.0;
84594;PMS5003;74832;51.656;5.298;2024-01-06T00:15:14;10.0;9.0;
84594;PMS5003;74832;51.656;5.298;2024-01-06T00:15:44;8.0;7.0;
84594;PMS5003;74832;51.656;5.298;2024-01-06T00:16:16;6.0;6.0;
84594;PMS5003;74832;51.656;5.298;2024-01-06T00:16:47;8.0;7.0;
84594;PMS5003;74832;51.656;5.298;2024-01-06T00:17:17;8.0;7.0;
84594;PMS5003;74832;51.656;5.298;2024-01-06T00:17:48;7.0;6.0;
84594;PMS5003;74832;51.656;5.298;2024-01-06T00:18:18;7.0;6.0;
84594;PMS5003;74832;51.656;5.298;2024-01-06T00:18:49;9.0;8.0;
84594;PMS5003;74832;51.656;5.298;2024-01-06T00:19:19;5.0;5.0;
84594;PMS5003;74832;51.656;5.298;2024-01-06T00:19:50;7.0;7.0;
84594;PMS5003;74832;51.656;5.298;2024-01-06T00:20:20;7.0;7.0;
84594;PMS5003;74832;51.656;5.298;2024-01-06T00:20:50;9.0;7.0;
84594;PMS5003;74832;51.656;5.298;2024-01-06T00:21:21;7.0;7.0;
84594;PMS5003;74832;51.656;5.298;2024-01-06T00:21:51;8.0;8.0;
84594;PMS5003;74832;51.656;5.298;2024-01-06T00:22:21;6.0;5.0;
84594;PMS5003;74832;51.656;5.298;2024-01-06T00:22:52;7.0;7.0;
84594;PMS5003;74832;51.656;5.298;2024-01-06T00:23:22;10.0;7.0;
84594;PMS5003;74832;51.656;5.298;2024-01-06T00:23:52;4.0;4.0;
84594;PMS5003;74832;51.656;5.298;2024-01-06T00:24:23;7.0;6.0;
84594;PMS5003;74832;51.656;5.298;2024-01-06T00:24:53;9.0;6.0;
84594;PMS5003;74832;51.656;5.298;2024-01-06T00:25:24;7.0;6.0;
84594;PMS5003;74832;51.656;5.298;2024-01-06T00:25:54;8.0;8.0;
84594;PMS5003;74832;51.656;5.298;2024-01-06T00:26:25;10.0;8.0;
84594;PMS5003;74832;51.656;5.298;2024-01-06T00:26:55;8.0;7.0;
84594;PMS5003;74832;51.656;5.298;2024-01-06T00:27:25;6.0;6.0;
84594;PMS5003;74832;51.656;5.298;2024-01-06T00:27:56;7.0;7.0;
84594;PMS5003;74832;51.656;5.298;2024-01-06T00:28:26;8.0;6.0;
84594;PMS5003;74832;51.656;5.298;2024-01-06T00:28:56;7.0;7.0;
84594;PMS5003;74832;51.656;5.298;2024-01-06T00:29:27;8.0;7.0;
84594;PMS5003;74832;51.656;5.298;2024-01-06T00:29:57;6.0;5.0;
84594;PMS5003;74832;51.656;5.298;2024-01-06T00:30:27;7.0;7.0;
84594;PMS5003;74832;51.656;5.298;2024-01-06T00:30:58;10.0;10.0;
84594;PMS5003;74832;51.656;5.298;2024-01-06T00:31:28;7.0;7.0;
84594;PMS5003;74832;51.656;5.298;2024-01-06T00:31:59;7.0;7.0;
84594;PMS5003;74832;51.656;5.298;2024-01-06T00:32:29;9.0;8.0;
84594;PMS5003;74832;51.656;5.298;2024-01-06T00:32:59;7.0;7.0;
84594;PMS5003;74832;51.656;5.298;2024-01-06T00:33:30;8.0;6.0;
84594;PMS5003;74832;51.656;5.298;2024-01-06T00:34:00;6.0;6.0;
84594;PMS5003;74832;51.656;5.298;2024-01-06T00:34:30;6.0;6.0;
84594;PMS5003;74832;51.656;5.298;2024-01-06T00:35:01;8.0;7.0;
84594;PMS5003;74832;51.656;5.298;2024-01-06T00:35:31;8.0;7.0;
84594;PMS5003;74832;51.656;5.298;2024-01-06T00:36:02;7.0;7.0;
84594;PMS5003;74832;51.656;5.298;2024-01-06T00:36:32;6.0;6.0;
84594;PMS5003;74832;51.656;5.298;2024-01-06T00:37:03;8.0;8.0;
84594;PMS5003;74832;51.656;5.298;2024-01-06T00:37:33;6.0;6.0;
84594;PMS5003;74832;51.656;5.298;2024-01-06T00:38:04;4.0;4.0;
84594;PMS5003;74832;51.656;5.298;2024-01-06T00:38:34;6.0;6.0;
84594;PMS5003;74832;51.656;5.298;2024-01-06T00:39:05;7.0;5.0;
84594;PMS5003;74832;51.656;5.298;2024-01-06T00:39:35;6.0;6.0;
84594;PMS5003;74832;51.656;5.298;2024-01-06T00:40:06;6.0;6.0;
84594;PMS5003;74832;51.656;5.298;2024-01-06T00:40:37;10.0;9.0;
84594;PMS5003;74832;51.656;5.298;2024-01-06T00:41:07;7.0;7.0;
84594;PMS5003;74832;51.656;5.298;2024-01-06T00:41:38;8.0;7.0;
84594;PMS5003;74832;51.656;5.298;2024-01-06T00:42:08;8.0;7.0;
84594;PMS5003;74832;51.656;5.298;2024-01-06T00:42:38;6.0;5.0;
84594;PMS5003;74832;51.656;5.298;2024-01-06T00:43:09;6.0;6.0;
84594;PMS5003;74832;51.656;5.298;2024-01-06T00:43:39;4.0;4.0;
84594;PMS5003;74832;51.656;5.298;2024-01-06T00:44:10;10.0;7.0;
84594;PMS5003;74832;51.656;5.298;2024-01-06T00:44:40;5.0;5.0;
84594;PMS5003;74832;51.656;5.298;2024-01-06T00:45:10;5.0;5.0;
84594;PMS5003;74832;51.656;5.298;2024-01-06T00:45:41;6.0;6.0;
84594;PMS5003;74832;51.656;5.298;2024-01-06T00:46:11;6.0;6.0;
84594;PMS5003;74832;51.656;5.298;2024-01-06T00:46:42;6.0;6.0;
84594;PMS5003;74832;51.656;5.298;2024-01-06T00:47:12;8.0;7.0;
84594;PMS5003;74832;51.656;5.298;2024-01-06T00:47:43;7.0;6.0;
84594;PMS5003;74832;51.656;5.298;2024-01-06T00:48:13;9.0;7.0;
84594;PMS5003;74832;51.656;5.298;2024-01-06T00:48:43;5.0;5.0;
84594;PMS5003;74832;51.656;5.298;2024-01-06T00:49:14;5.0;5.0;
84594;PMS5003;74832;51.656;5.298;2024-01-06T00:49:44;6.0;6.0;
84594;PMS5003;74832;51.656;5.298;2024-01-06T00:50:15;6.0;5.0;
84594;PMS5003;74832;51.656;5.298;2024-01-06T00:50:45;7.0;7.0;
84594;PMS5003;74832;51.656;5.298;2024-01-06T00:51:15;6.0;6.0;
84594;PMS5003;74832;51.656;5.298;2024-01-06T00:51:46;8.0;7.0;
84594;PMS5003;74832;51.656;5.298;2024-01-06T00:52:16;4.0;4.0;
84594;PMS5003;74832;51.656;5.298;2024-01-06T00:52:47;6.0;5.0;
84594;PMS5003;74832;51.656;5.298;2024-01-06T00:53:17;6.0;5.0;
84594;PMS5003;74832;51.656;5.298;2024-01-06T00:53:47;8.0;7.0;
84594;PMS5003;74832;51.656;5.298;2024-01-06T00:54:18;10.0;10.0;
84594;PMS5003;74832;51.656;5.298;2024-01-06T00:54:48;6.0;6.0;
84594;PMS5003;74832;51.656;5.298;2024-01-06T00:55:19;7.0;7.0;
84594;PMS5003;74832;51.656;5.298;2024-01-06T00:55:49;7.0;7.0;
84594;PMS5003;74832;51.656;5.298;2024-01-06T00:56:20;5.0;5.0;
84594;PMS5003;74832;51.656;5.298;2024-01-06T00:56:50;6.0;4.0;
84594;PMS5003;74832;51.656;5.298;2024-01-06T00:57:20;4.0;4.0;
84594;PMS5003;74832;51.656;5.298;2024-01-06T00:57:51;7.0;7.0;
84594;PMS5003;74832;51.656;5.298;2024-01-06T00:58:21;8.0;6.0;
84594;PMS5003;74832;51.656;5.298;2024-01-06T00:58:52;6.0;4.0;
84594;PMS5003;74832;51.656;5.298;2024-01-06T00:59:22;8.0;7.0;
84594;PMS5003;74832;51.656;5.298;2024-01-06T00:59:52;6.0;6.0;
84594;PMS5003;74832;51.656;5.298;2024-01-06T01:00:23;7.0;6.0;
84594;PMS5003;74832;51.656;5.298;2024-01-06T01:00:53;8.0;5.0;
84594;PMS5003;74832;51.656;5.298;2024-01-06T01:01:23;7.0;7.0;
84594;PMS5003;74832;51.656;5.298;2024-01-06T01:01:54;6.0;5.0;
84594;PMS5003;74832;51.656;5.298;2024-01-06T01:02:24;5.0;5.0;
84594;PMS5003;74832;51.656;5.298;2024-01-06T01:02:55;6.0;6.0;
84594;PMS5003;74832;51.656;5.298;2024-01-06T01:03:25;7.0;6.0;
84594;PMS5003;74832;51.656;5.298;2024-01-06T01:03:56;6.0;6.0;
84594;PMS5003;74832;51.656;5.298;2024-01-06T01:04:26;7.0;6.0;
84594;PMS5003;74832;51.656;5.298;2024-01-06T01:04:56;5.0;5.0;
84594;PMS5003;74832;51.656;5.298;2024-01-06T01:05:27;5.0;5.0;
84594;PMS5003;74832;51.656;5.298;2024-01-06T01:05:57;5.0;5.0;
84594;PMS5003;74832;51.656;5.298;2024-01-06T01:06:27;7.0;6.0;
84594;PMS5003;74832;51.656;5.298;2024-01-06T01:06:58;5.0;5.0;
84594;PMS5003;74832;51.656;5.298;2024-01-06T01:07:28;6.0;5.0;
84594;PMS5003;74832;51.656;5.298;2024-01-06T01:07:59;8.0;6.0;
84594;PMS5003;74832;51.656;5.298;2024-01-06T01:08:29;6.0;6.0;
84594;PMS5003;74832;51.656;5.298;2024-01-06T01:09:00;5.0;5.0;
84594;PMS5003;74832;51.656;5.298;2024-01-06T01:09:30;7.0;7.0;
84594;PMS5003;74832;51.656;5.298;2024-01-06T01:10:00;7.0;7.0;
84594;PMS5003;74832;51.656;5.298;2024-01-06T01:10:31;7.0;6.0;
84594;PMS5003;74832;51.656;5.298;2024-01-06T01:11:01;6.0;6.0;
84594;PMS5003;74832;51.656;5.298;2024-01-06T01:11:32;6.0;5.0;
84594;PMS5003;74832;51.656;5.298;2024-01-06T01:12:03;7.0;7.0;
84594;PMS5003;74832;51.656;5.298;2024-01-06T01:12:33;5.0;5.0;
84594;PMS5003;74832;51.656;5.298;2024-01-06T01:13:04;6.0;6.0;
84594;PMS5003;74832;51.656;5.298;2024-01-06T01:13:34;7.0;7.0;
84594;PMS5003;74832;51.656;5.298;2024-01-06T01:14:05;7.0;6.0;
84594;PMS5003;74832;51.656;5.298;2024-01-06T01:14:35;5.0;5.0;
84594;PMS5003;74832;51.656;5.298;2024-01-06T01:15:06;5.0;4.0;
84594;PMS5003;74832;51.656;5.298;2024-01-06T01:15:37;4.0;4.0;
84594;PMS5003;74832;51.656;5.298;2024-01-06T01:16:07;6.0;5.0;
84594;PMS5003;74832;51.656;5.298;2024-01-06T01:16:38;3.0;3.0;
84594;PMS5003;74832;51.656;5.298;2024-01-06T01:17:08;8.0;7.0;
84594;PMS5003;74832;51.656;5.298;2024-01-06T01:17:38;6.0;6.0;
84594;PMS5003;74832;51.656;5.298;2024-01-06T01:18:09;7.0;7.0;
84594;PMS5003;74832;51.656;5.298;2024-01-06T01:18:39;7.0;6.0;
84594;PMS5003;74832;51.656;5.298;2024-01-06T01:19:10;6.0;6.0;
84594;PMS5003;74832;51.656;5.298;2024-01-06T01:19:40;6.0;6.0;
84594;PMS5003;74832;51.656;5.298;2024-01-06T01:20:10;6.0;5.0;
84594;PMS5003;74832;51.656;5.298;2024-01-06T01:20:41;5.0;5.0;
84594;PMS5003;74832;51.656;5.298;2024-01-06T01:21:11;5.0;5.0;
84594;PMS5003;74832;51.656;5.298;2024-01-06T01:21:42;6.0;6.0;
84594;PMS5003;74832;51.656;5.298;2024-01-06T01:22:12;5.0;4.0;
84594;PMS5003;74832;51.656;5.298;2024-01-06T01:22:44;5.0;4.0;
84594;PMS5003;74832;51.656;5.298;2024-01-06T01:23:14;5.0;4.0;
84594;PMS5003;74832;51.656;5.298;2024-01-06T01:23:45;9.0;8.0;
84594;PMS5003;74832;51.656;5.298;2024-01-06T01:24:15;5.0;5.0;
84594;PMS5003;74832;51.656;5.298;2024-01-06T01:24:46;5.0;5.0;
84594;PMS5003;74832;51.656;5.298;2024-01-06T01:25:16;6.0;6.0;
84594;PMS5003;74832;51.656;5.298;2024-01-06T01:25:46;4.0;4.0;
84594;PMS5003;74832;51.656;5.298;2024-01-06T01:26:17;5.0;5.0;
84594;PMS5003;74832;51.656;5.298;2024-01-06T01:26:47;5.0;5.0;
84594;PMS5003;74832;51.656;5.298;2024-01-06T01:27:17;5.0;5.0;
84594;PMS5003;74832;51.656;5.298;2024-01-06T01:27:48;4.0;4.0;
84594;PMS5003;74832;51.656;5.298;2024-01-06T01:28:18;4.0;4.0;
84594;PMS5003;74832;51.656;5.298;2024-01-06T01:28:49;7.0;6.0;
84594;PMS5003;74832;51.656;5.298;2024-01-06T01:29:19;7.0;7.0;
84594;PMS5003;74832;51.656;5.298;2024-01-06T01:29:49;4.0;4.0;
84594;PMS5003;74832;51.656;5.298;2024-01-06T01:30:20;5.0;5.0;
84594;PMS5003;74832;51.656;5.298;2024-01-06T01:30:50;5.0;5.0;
84594;PMS5003;74832;51.656;5.298;2024-01-06T01:31:20;6.0;6.0;
84594;PMS5003;74832;51.656;5.298;2024-01-06T01:31:51;5.0;5.0;
84594;PMS5003;74832;51.656;5.298;2024-01-06T01:32:21;4.0;3.0;
84594;PMS5003;74832;51.656;5.298;2024-01-06T01:32:52;5.0;5.0;
84594;PMS5003;74832;51.656;5.298;2024-01-06T01:33:22;4.0;4.0;
84594;PMS5003;74832;51.656;5.298;2024-01-06T01:33:52;6.0;6.0;
84594;PMS5003;74832;51.656;5.298;2024-01-06T01:34:23;6.0;6.0;
84594;PMS5003;74832;51.656;5.298;2024-01-06T01:34:53;6.0;5.0;
84594;PMS5003;74832;51.656;5.298;2024-01-06T01:35:23;5.0;5.0;
84594;PMS5003;74832;51.656;5.298;2024-01-06T01:35:54;6.0;5.0;
84594;PMS5003;74832;51.656;5.298;2024-01-06T01:36:24;6.0;6.0;
84594;PMS5003;74832;51.656;5.298;2024-01-06T01:36:55;6.0;6.0;
84594;PMS5003;74832;51.656;5.298;2024-01-06T01:37:25;8.0;6.0;
84594;PMS5003;74832;51.656;5.298;2024-01-06T01:37:55;6.0;5.0;
84594;PMS5003;74832;51.656;5.298;2024-01-06T01:38:26;6.0;6.0;
84594;PMS5003;74832;51.656;5.298;2024-01-06T01:38:56;5.0;4.0;
84594;PMS5003;74832;51.656;5.298;2024-01-06T01:39:26;6.0;5.0;
84594;PMS5003;74832;51.656;5.298;2024-01-06T01:39:57;3.0;3.0;
84594;PMS5003;74832;51.656;5.298;2024-01-06T01:40:27;4.0;4.0;
84594;PMS5003;74832;51.656;5.298;2024-01-06T01:40:58;6.0;5.0;
84594;PMS5003;74832;51.656;5.298;2024-01-06T01:41:28;5.0;4.0;
84594;PMS5003;74832;51.656;5.298;2024-01-06T01:41:58;4.0;4.0;
84594;PMS5003;74832;51.656;5.298;2024-01-06T01:42:29;6.0;5.0;
84594;PMS5003;74832;51.656;5.298;2024-01-06T01:42:59;6.0;6.0;
84594;PMS5003;74832;51.656;5.298;2024-01-06T01:43:29;6.0;5.0;
84594;PMS5003;74832;51.656;5.298;2024-01-06T01:44:00;5.0;4.0;
84594;PMS5003;74832;51.656;5.298;2024-01-06T01:44:30;5.0;4.0;
84594;PMS5003;74832;51.656;5.298;2024-01-06T01:45:04;4.0;3.0;
84594;PMS5003;74832;51.656;5.298;2024-01-06T01:45:35;7.0;6.0;
84594;PMS5003;74832;51.656;5.298;2024-01-06T01:46:05;5.0;5.0;
84594;PMS5003;74832;51.656;5.298;2024-01-06T01:46:36;8.0;8.0;
84594;PMS5003;74832;51.656;5.298;2024-01-06T01:47:06;5.0;5.0;
84594;PMS5003;74832;51.656;5.298;2024-01-06T01:47:37;6.0;5.0;
84594;PMS5003;74832;51.656;5.298;2024-01-06T01:48:08;5.0;5.0;
84594;PMS5003;74832;51.656;5.298;2024-01-06T01:48:38;7.0;7.0;
84594;PMS5003;74832;51.656;5.298;2024-01-06T01:49:09;6.0;6.0;
84594;PMS5003;74832;51.656;5.298;2024-01-06T01:49:40;6.0;4.0;
84594;PMS5003;74832;51.656;5.298;2024-01-06T01:50:10;4.0;4.0;
84594;PMS5003;74832;51.656;5.298;2024-01-06T01:50:41;7.0;6.0;
84594;PMS5003;74832;51.656;5.298;2024-01-06T01:51:12;8.0;7.0;
84594;PMS5003;74832;51.656;5.298;2024-01-06T01:51:42;6.0;6.0;
84594;PMS5003;74832;51.656;5.298;2024-01-06T01:52:13;4.0;4.0;
84594;PMS5003;74832;51.656;5.298;2024-01-06T01:52:45;10.0;10.0;
84594;PMS5003;74832;51.656;5.298;2024-01-06T01:53:15;3.0;3.0;
84594;PMS5003;74832;51.656;5.298;2024-01-06T01:53:46;7.0;5.0;
84594;PMS5003;74832;51.656;5.298;2024-01-06T01:54:16;5.0;5.0;
84594;PMS5003;74832;51.656;5.298;2024-01-06T01:54:47;8.0;6.0;
84594;PMS5003;74832;51.656;5.298;2024-01-06T01:55:17;4.0;3.0;
84594;PMS5003;74832;51.656;5.298;2024-01-06T01:55:48;3.0;3.0;
84594;PMS5003;74832;51.656;5.298;2024-01-06T01:56:19;5.0;5.0;
84594;PMS5003;74832;51.656;5.298;2024-01-06T01:56:51;5.0;4.0;
84594;PMS5003;74832;51.656;5.298;2024-01-06T01:57:22;6.0;5.0;
84594;PMS5003;74832;51.656;5.298;2024-01-06T01:57:55;4.0;4.0;
84594;PMS5003;74832;51.656;5.298;2024-01-06T01:58:25;5.0;4.0;
84594;PMS5003;74832;51.656;5.298;2024-01-06T01:58:56;4.0;4.0;
84594;PMS5003;74832;51.656;5.298;2024-01-06T01:59:26;5.0;4.0;
84594;PMS5003;74832;51.656;5.298;2024-01-06T01:59:57;5.0;4.0;
84594;PMS5003;74832;51.656;5.298;2024-01-06T02:00:27;6.0;5.0;
84594;PMS5003;74832;51.656;5.298;2024-01-06T02:00:58;5.0;5.0;
84594;PMS5003;74832;51.656;5.298;2024-01-06T02:01:29;4.0;4.0;
84594;PMS5003;74832;51.656;5.298;2024-01-06T02:01:59;5.0;4.0;
84594;PMS5003;74832;51.656;5.298;2024-01-06T02:02:32;4.0;4.0;
84594;PMS5003;74832;51.656;5.298;2024-01-06T02:03:02;3.0;3.0;
84594;PMS5003;74832;51.656;5.298;2024-01-06T02:03:34;5.0;5.0;
84594;PMS5003;74832;51.656;5.298;2024-01-06T02:04:05;3.0;3.0;
84594;PMS5003;74832;51.656;5.298;2024-01-06T02:04:35;4.0;3.0;
84594;PMS5003;74832;51.656;5.298;2024-01-06T02:05:06;4.0;4.0;
84594;PMS5003;74832;51.656;5.298;2024-01-06T02:05:37;4.0;4.0;
84594;PMS5003;74832;51.656;5.298;2024-01-06T02:06:07;4.0;4.0;
84594;PMS5003;74832;51.656;5.298;2024-01-06T02:06:38;3.0;2.0;
84594;PMS5003;74832;51.656;5.298;2024-01-06T02:07:08;3.0;3.0;
84594;PMS5003;74832;51.656;5.298;2024-01-06T02:07:38;4.0;4.0;
84594;PMS5003;74832;51.656;5.298;2024-01-06T02:08:09;3.0;3.0;
84594;PMS5003;74832;51.656;5.298;2024-01-06T02:08:39;4.0;3.0;
84594;PMS5003;74832;51.656;5.298;2024-01-06T02:09:10;5.0;4.0;
84594;PMS5003;74832;51.656;5.298;2024-01-06T02:09:40;3.0;3.0;
84594;PMS5003;74832;51.656;5.298;2024-01-06T02:10:11;4.0;4.0;
84594;PMS5003;74832;51.656;5.298;2024-01-06T02:10:41;4.0;4.0;
84594;PMS5003;74832;51.656;5.298;2024-01-06T02:11:12;5.0;5.0;
84594;PMS5003;74832;51.656;5.298;2024-01-06T02:11:42;4.0;4.0;
84594;PMS5003;74832;51.656;5.298;2024-01-06T02:12:12;4.0;3.0;
84594;PMS5003;74832;51.656;5.298;2024-01-06T02:12:43;5.0;4.0;
84594;PMS5003;74832;51.656;5.298;2024-01-06T02:13:13;4.0;4.0;
84594;PMS5003;74832;51.656;5.298;2024-01-06T02:13:44;5.0;4.0;
84594;PMS5003;74832;51.656;5.298;2024-01-06T02:14:14;4.0;4.0;
84594;PMS5003;74832;51.656;5.298;2024-01-06T02:14:45;1.0;1.0;
84594;PMS5003;74832;51.656;5.298;2024-01-06T02:15:17;5.0;3.0;
84594;PMS5003;74832;51.656;5.298;2024-01-06T02:15:48;3.0;3.0;
84594;PMS5003;74832;51.656;5.298;2024-01-06T02:16:19;4.0;4.0;
84594;PMS5003;74832;51.656;5.298;2024-01-06T02:16:49;4.0;4.0;
84594;PMS5003;74832;51.656;5.298;2024-01-06T02:17:20;4.0;4.0;
84594;PMS5003;74832;51.656;5.298;2024-01-06T02:17:50;4.0;4.0;
84594;PMS5003;74832;51.656;5.298;2024-01-06T02:18:20;5.0;5.0;
84594;PMS5003;74832;51.656;5.298;2024-01-06T02:18:51;4.0;4.0;
84594;PMS5003;74832;51.656;5.298;2024-01-06T02:19:21;3.0;3.0;
84594;PMS5003;74832;51.656;5.298;2024-01-06T02:19:51;4.0;4.0;
84594;PMS5003;74832;51.656;5.298;2024-01-06T02:20:22;4.0;4.0;
84594;PMS5003;74832;51.656;5.298;2024-01-06T02:20:56;4.0;4.0;
84594;PMS5003;74832;51.656;5.298;2024-01-06T02:21:28;5.0;4.0;
84594;PMS5003;74832;51.656;5.298;2024-01-06T02:22:01;3.0;3.0;
84594;PMS5003;74832;51.656;5.298;2024-01-06T02:22:31;4.0;4.0;
84594;PMS5003;74832;51.656;5.298;2024-01-06T02:23:02;4.0;4.0;
84594;PMS5003;74832;51.656;5.298;2024-01-06T02:23:34;3.0;3.0;
84594;PMS5003;74832;51.656;5.298;2024-01-06T02:24:05;4.0;4.0;
84594;PMS5003;74832;51.656;5.298;2024-01-06T02:24:36;2.0;2.0;
84594;PMS5003;74832;51.656;5.298;2024-01-06T02:25:07;4.0;3.0;
84594;PMS5003;74832;51.656;5.298;2024-01-06T02:25:37;4.0;4.0;
84594;PMS5003;74832;51.656;5.298;2024-01-06T02:26:08;2.0;2.0;
84594;PMS5003;74832;51.656;5.298;2024-01-06T02:26:40;1.0;1.0;
84594;PMS5003;74832;51.656;5.298;2024-01-06T02:27:10;4.0;3.0;
84594;PMS5003;74832;51.656;5.298;2024-01-06T02:27:40;3.0;3.0;
84594;PMS5003;74832;51.656;5.298;2024-01-06T02:28:11;3.0;2.0;
84594;PMS5003;74832;51.656;5.298;2024-01-06T02:28:41;4.0;4.0;
84594;PMS5003;74832;51.656;5.298;2024-01-06T02:29:12;3.0;3.0;
84594;PMS5003;74832;51.656;5.298;2024-01-06T02:29:42;4.0;4.0;
84594;PMS5003;74832;51.656;5.298;2024-01-06T02:30:12;5.0;4.0;
84594;PMS5003;74832;51.656;5.298;2024-01-06T02:30:43;3.0;3.0;
84594;PMS5003;74832;51.656;5.298;2024-01-06T02:31:13;5.0;4.0;
84594;PMS5003;74832;51.656;5.298;2024-01-06T02:31:44;2.0;2.0;
84594;PMS5003;74832;51.656;5.298;2024-01-06T02:32:14;2.0;2.0;
84594;PMS5003;74832;51.656;5.298;2024-01-06T02:32:45;4.0;3.0;
84594;PMS5003;74832;51.656;5.298;2024-01-06T02:33:15;2.0;2.0;
84594;PMS5003;74832;51.656;5.298;2024-01-06T02:33:45;5.0;4.0;
84594;PMS5003;74832;51.656;5.298;2024-01-06T02:34:16;4.0;4.0;
84594;PMS5003;74832;51.656;5.298;2024-01-06T02:34:46;3.0;3.0;
84594;PMS5003;74832;51.656;5.298;2024-01-06T02:35:16;3.0;3.0;
84594;PMS5003;74832;51.656;5.298;2024-01-06T02:35:47;2.0;2.0;
84594;PMS5003;74832;51.656;5.298;2024-01-06T02:36:17;2.0;2.0;
84594;PMS5003;74832;51.656;5.298;2024-01-06T02:36:48;3.0;3.0;
84594;PMS5003;74832;51.656;5.298;2024-01-06T02:37:18;3.0;3.0;
84594;PMS5003;74832;51.656;5.298;2024-01-06T02:37:49;2.0;2.0;
84594;PMS5003;74832;51.656;5.298;2024-01-06T02:38:19;3.0;3.0;
84594;PMS5003;74832;51.656;5.298;2024-01-06T02:38:49;4.0;4.0;
84594;PMS5003;74832;51.656;5.298;2024-01-06T02:39:20;3.0;2.0;
84594;PMS5003;74832;51.656;5.298;2024-01-06T02:39:51;2.0;2.0;
84594;PMS5003;74832;51.656;5.298;2024-01-06T02:40:22;1.0;1.0;
84594;PMS5003;74832;51.656;5.298;2024-01-06T02:40:52;3.0;2.0;
84594;PMS5003;74832;51.656;5.298;2024-01-06T02:41:23;3.0;3.0;
84594;PMS5003;74832;51.656;5.298;2024-01-06T02:41:53;3.0;3.0;
84594;PMS5003;74832;51.656;5.298;2024-01-06T02:42:24;3.0;3.0;
84594;PMS5003;74832;51.656;5.298;2024-01-06T02:42:54;3.0;3.0;
84594;PMS5003;74832;51.656;5.298;2024-01-06T02:43:25;2.0;2.0;
84594;PMS5003;74832;51.656;5.298;2024-01-06T02:43:55;3.0;2.0;
84594;PMS5003;74832;51.656;5.298;2024-01-06T02:44:25;2.0;2.0;
84594;PMS5003;74832;51.656;5.298;2024-01-06T02:44:56;3.0;3.0;
84594;PMS5003;74832;51.656;5.298;2024-01-06T02:45:26;3.0;3.0;
84594;PMS5003;74832;51.656;5.298;2024-01-06T02:45:57;2.0;2.0;
84594;PMS5003;74832;51.656;5.298;2024-01-06T02:46:27;4.0;3.0;
84594;PMS5003;74832;51.656;5.298;2024-01-06T02:46:57;4.0;4.0;
84594;PMS5003;74832;51.656;5.298;2024-01-06T02:47:28;3.0;3.0;
84594;PMS5003;74832;51.656;5.298;2024-01-06T02:47:58;2.0;2.0;
84594;PMS5003;74832;51.656;5.298;2024-01-06T02:48:29;2.0;2.0;
84594;PMS5003;74832;51.656;5.298;2024-01-06T02:48:59;2.0;2.0;
84594;PMS5003;74832;51.656;5.298;2024-01-06T02:49:30;2.0;2.0;
84594;PMS5003;74832;51.656;5.298;2024-01-06T02:50:00;3.0;3.0;
84594;PMS5003;74832;51.656;5.298;2024-01-06T02:50:30;2.0;2.0;
84594;PMS5003;74832;51.656;5.298;2024-01-06T02:51:01;1.0;1.0;
84594;PMS5003;74832;51.656;5.298;2024-01-06T02:51:31;4.0;2.0;
84594;PMS5003;74832;51.656;5.298;2024-01-06T02:52:01;2.0;2.0;
84594;PMS5003;74832;51.656;5.298;2024-01-06T02:52:32;3.0;3.0;
84594;PMS5003;74832;51.656;5.298;2024-01-06T02:53:03;1.0;1.0;
84594;PMS5003;74832;51.656;5.298;2024-01-06T02:53:33;1.0;1.0;
84594;PMS5003;74832;51.656;5.298;2024-01-06T02:54:04;2.0;2.0;
84594;PMS5003;74832;51.656;5.298;2024-01-06T02:54:34;2.0;2.0;
84594;PMS5003;74832;51.656;5.298;2024-01-06T02:55:05;3.0;3.0;
84594;PMS5003;74832;51.656;5.298;2024-01-06T02:55:36;1.0;0.0;
84594;PMS5003;74832;51.656;5.298;2024-01-06T02:56:09;2.0;2.0;
84594;PMS5003;74832;51.656;5.298;2024-01-06T02:56:40;2.0;2.0;
84594;PMS5003;74832;51.656;5.298;2024-01-06T02:57:10;2.0;2.0;
84594;PMS5003;74832;51.656;5.298;2024-01-06T02:57:40;2.0;2.0;
84594;PMS5003;74832;51.656;5.298;2024-01-06T02:58:11;3.0;2.0;
84594;PMS5003;74832;51.656;5.298;2024-01-06T02:58:41;1.0;1.0;
84594;PMS5003;74832;51.656;5.298;2024-01-06T02:59:11;4.0;3.0;
84594;PMS5003;74832;51.656;5.298;2024-01-06T02:59:42;1.0;1.0;
84594;PMS5003;74832;51.656;5.298;2024-01-06T03:00:13;3.0;3.0;
84594;PMS5003;74832;51.656;5.298;2024-01-06T03:00:44;1.0;1.0;
84594;PMS5003;74832;51.656;5.298;2024-01-06T03:01:14;3.0;3.0;
84594;PMS5003;74832;51.656;5.298;2024-01-06T03:01:44;3.0;3.0;
84594;PMS5003;74832;51.656;5.298;2024-01-06T03:02:15;3.0;3.0;
84594;PMS5003;74832;51.656;5.298;2024-01-06T03:02:45;2.0;2.0;
84594;PMS5003;74832;51.656;5.298;2024-01-06T03:03:15;1.0;1.0;
84594;PMS5003;74832;51.656;5.298;2024-01-06T03:03:46;1.0;1.0;
84594;PMS5003;74832;51.656;5.298;2024-01-06T03:04:16;3.0;3.0;
84594;PMS5003;74832;51.656;5.298;2024-01-06T03:04:47;3.0;2.0;
84594;PMS5003;74832;51.656;5.298;2024-01-06T03:05:17;1.0;1.0;
84594;PMS5003;74832;51.656;5.298;2024-01-06T03:05:47;3.0;2.0;
84594;PMS5003;74832;51.656;5.298;2024-01-06T03:06:18;2.0;2.0;
84594;PMS5003;74832;51.656;5.298;2024-01-06T03:06:48;2.0;2.0;
84594;PMS5003;74832;51.656;5.298;2024-01-06T03:07:18;3.0;2.0;
84594;PMS5003;74832;51.656;5.298;2024-01-06T03:07:49;1.0;1.0;
84594;PMS5003;74832;51.656;5.298;2024-01-06T03:08:19;1.0;1.0;
84594;PMS5003;74832;51.656;5.298;2024-01-06T03:08:50;3.0;3.0;
84594;PMS5003;74832;51.656;5.298;2024-01-06T03:09:20;2.0;2.0;
84594;PMS5003;74832;51.656;5.298;2024-01-06T03:09:50;2.0;2.0;
84594;PMS5003;74832;51.656;5.298;2024-01-06T03:10:21;2.0;2.0;
84594;PMS5003;74832;51.656;5.298;2024-01-06T03:10:52;2.0;2.0;
84594;PMS5003;74832;51.656;5.298;2024-01-06T03:11:22;2.0;2.0;
84594;PMS5003;74832;51.656;5.298;2024-01-06T03:11:52;4.0;4.0;
84594;PMS5003;74832;51.656;5.298;2024-01-06T03:12:23;2.0;2.0;
84594;PMS5003;74832;51.656;5.298;2024-01-06T03:12:53;2.0;2.0;
84594;PMS5003;74832;51.656;5.298;2024-01-06T03:13:24;3.0;2.0;
84594;PMS5003;74832;51.656;5.298;2024-01-06T03:13:54;2.0;1.0;
84594;PMS5003;74832;51.656;5.298;2024-01-06T03:14:25;2.0;2.0;
84594;PMS5003;74832;51.656;5.298;2024-01-06T03:14:55;2.0;1.0;
84594;PMS5003;74832;51.656;5.298;2024-01-06T03:15:25;2.0;2.0;
84594;PMS5003;74832;51.656;5.298;2024-01-06T03:15:56;2.0;2.0;